Time;durP1;ratioP1;P1;durP2;ratioP2;P2;SDS_P1;SDS_P2;PMS_P1;PMS_P2;Temp;Humidity;BMP_temperature;BMP_pressure;BME280_temperature;BME280_humidity;BME280_pressure;Samples;Min_cycle;Max_cycle;Signal;HPM_P1;HPM_P2
2022/09/11 00:01:45;;;;;;;56.13;27.70;;;15.20;99.90;;;;;;5044846;28;20389;-50
2022/09/11 00:04:14;;;;;;;57.17;27.90;;;15.20;99.90;;;;;;5042385;28;20273;-47
2022/09/11 00:06:42;;;;;;;39.47;24.33;;;15.20;99.90;;;;;;5039508;28;20227;-48
2022/09/11 00:09:09;;;;;;;38.23;26.43;;;15.10;99.90;;;;;;5043835;28;20282;-45
2022/09/11 00:11:40;;;;;;;45.03;24.57;;;15.10;99.90;;;;;;5039809;28;20256;-44
2022/09/11 00:14:09;;;;;;;41.90;25.57;;;15.20;99.90;;;;;;5041842;28;20304;-44
2022/09/11 00:16:38;;;;;;;43.47;24.97;;;15.20;99.90;;;;;;5028796;28;20257;-46
2022/09/11 00:19:08;;;;;;;47.20;26.67;;;15.20;99.90;;;;;;5017932;28;20207;-47
2022/09/11 00:21:36;;;;;;;50.50;24.87;;;15.20;99.90;;;;;;5039378;28;20214;-46
2022/09/11 00:24:04;;;;;;;40.47;24.07;;;15.20;99.90;;;;;;5037297;28;20215;-44
2022/09/11 00:26:31;;;;;;;38.37;24.60;;;15.20;99.90;;;;;;5040606;28;20199;-46
2022/09/11 00:29:00;;;;;;;40.30;23.70;;;15.20;99.90;;;;;;5051492;28;20243;-45
2022/09/11 00:31:29;;;;;;;34.77;23.43;;;15.20;99.90;;;;;;5038579;28;20191;-44
2022/09/11 00:33:56;;;;;;;40.80;25.40;;;15.20;99.90;;;;;;5026733;28;20289;-48
2022/09/11 00:36:25;;;;;;;53.47;26.03;;;15.10;99.90;;;;;;5042034;28;20604;-48
2022/09/11 00:38:54;;;;;;;46.23;23.90;;;15.10;99.90;;;;;;5040029;28;20934;-46
2022/09/11 00:41:23;;;;;;;35.13;23.97;;;15.10;99.90;;;;;;5042537;28;20195;-47
2022/09/11 00:43:58;;;;;;;54.80;25.40;;;15.10;99.90;;;;;;5039145;28;20199;-48
2022/09/11 00:46:33;;;;;;;43.13;24.03;;;15.10;99.90;;;;;;5042411;28;20671;-47
2022/09/11 00:49:01;;;;;;;37.43;23.97;;;15.10;99.90;;;;;;5043680;28;20218;-44
2022/09/11 00:51:33;;;;;;;37.13;23.30;;;15.10;99.90;;;;;;5025109;28;20215;-45
2022/09/11 00:54:03;;;;;;;44.83;24.00;;;15.10;99.90;;;;;;5047235;28;20293;-44
2022/09/11 00:56:35;;;;;;;38.20;23.77;;;15.10;99.90;;;;;;5040385;28;20195;-45
2022/09/11 00:59:04;;;;;;;35.53;23.20;;;15.10;99.90;;;;;;5042768;28;20195;-45
2022/09/11 01:01:32;;;;;;;32.27;22.63;;;15.10;99.90;;;;;;5040308;28;20690;-46
2022/09/11 01:04:02;;;;;;;28.53;22.80;;;15.00;99.90;;;;;;5038168;28;20291;-47
2022/09/11 01:06:30;;;;;;;31.07;21.03;;;15.00;99.90;;;;;;5026180;28;20211;-46
2022/09/11 01:08:58;;;;;;;29.40;21.87;;;15.00;99.90;;;;;;5046341;28;20242;-46
2022/09/11 01:11:44;;;;;;;32.10;21.77;;;15.00;99.90;;;;;;5041159;28;20268;-45
2022/09/11 01:14:23;;;;;;;33.57;22.50;;;15.00;99.90;;;;;;5040839;28;20223;-45
2022/09/11 01:16:56;;;;;;;31.60;22.00;;;15.00;99.90;;;;;;5043425;28;20922;-46
2022/09/11 01:19:37;;;;;;;33.30;22.73;;;14.90;99.90;;;;;;5040794;28;20192;-44
2022/09/11 01:22:23;;;;;;;33.60;23.53;;;14.90;99.90;;;;;;5021362;28;20231;-46
2022/09/11 01:24:57;;;;;;;35.47;23.47;;;15.00;99.90;;;;;;5046665;28;20962;-44
2022/09/11 01:27:49;;;;;;;37.33;23.07;;;15.00;99.90;;;;;;5043386;28;20218;-48
2022/09/11 01:30:18;;;;;;;35.87;22.87;;;15.00;99.90;;;;;;5060132;28;20201;-48
2022/09/11 01:33:02;;;;;;;43.03;24.50;;;14.90;99.90;;;;;;5043190;28;20218;-46
2022/09/11 01:35:40;;;;;;;40.13;22.67;;;15.00;99.90;;;;;;5037035;28;20201;-43
2022/09/11 01:38:14;;;;;;;35.77;21.63;;;14.90;99.90;;;;;;5028780;28;20211;-47
2022/09/11 01:40:50;;;;;;;44.50;20.87;;;14.90;99.90;;;;;;5043604;28;20207;-43
2022/09/11 01:43:25;;;;;;;32.40;20.27;;;14.90;99.90;;;;;;5040019;28;20223;-45
2022/09/11 01:45:56;;;;;;;34.07;19.67;;;14.80;99.90;;;;;;5036619;28;20183;-44
2022/09/11 01:48:28;;;;;;;28.30;19.17;;;14.80;99.90;;;;;;5043532;28;20212;-44
2022/09/11 01:50:58;;;;;;;31.33;17.47;;;14.80;99.90;;;;;;5056083;28;20211;-46
2022/09/11 01:53:29;;;;;;;30.17;17.67;;;14.80;99.90;;;;;;5039834;28;20219;-50
2022/09/11 01:56:01;;;;;;;30.57;17.37;;;14.80;99.90;;;;;;5039444;28;20210;-44
2022/09/11 01:58:35;;;;;;;27.07;17.47;;;14.80;99.90;;;;;;5041063;28;20286;-46
2022/09/11 02:01:06;;;;;;;33.80;17.93;;;14.80;99.90;;;;;;5046195;28;20184;-45
2022/09/11 02:03:38;;;;;;;40.17;16.20;;;14.80;99.90;;;;;;5039648;28;20265;-47
2022/09/11 02:06:11;;;;;;;27.83;16.10;;;14.80;99.90;;;;;;5033124;28;20199;-45
2022/09/11 02:08:45;;;;;;;30.57;17.50;;;14.80;99.90;;;;;;5031349;28;20207;-46
2022/09/11 02:11:18;;;;;;;28.50;17.07;;;14.80;99.90;;;;;;5046168;28;20303;-46
2022/09/11 02:13:55;;;;;;;37.90;17.13;;;14.80;99.90;;;;;;5043978;28;20289;-43
2022/09/11 02:16:36;;;;;;;37.23;16.97;;;14.80;99.90;;;;;;5043558;28;20537;-47
2022/09/11 02:19:05;;;;;;;28.60;15.50;;;14.80;99.90;;;;;;5044347;28;20199;-45
2022/09/11 02:21:34;;;;;;;34.13;16.13;;;14.90;99.90;;;;;;5019010;28;20219;-45
2022/09/11 02:24:02;;;;;;;30.67;17.03;;;14.90;99.90;;;;;;5025899;28;20223;-48
2022/09/11 02:26:33;;;;;;;37.47;18.40;;;14.80;99.90;;;;;;5036454;28;20218;-46
2022/09/11 02:29:01;;;;;;;40.40;19.87;;;14.80;99.90;;;;;;5043762;28;20198;-45
2022/09/11 02:31:29;;;;;;;35.77;19.30;;;14.80;99.90;;;;;;5057853;28;20639;-44
2022/09/11 02:33:57;;;;;;;42.77;19.33;;;14.80;99.90;;;;;;5042542;28;20216;-47
2022/09/11 02:36:43;;;;;;;38.57;18.33;;;14.90;99.90;;;;;;5041101;28;20206;-44
2022/09/11 02:39:26;;;;;;;32.43;16.80;;;14.90;99.90;;;;;;5032208;28;20630;-46
2022/09/11 02:42:14;;;;;;;28.27;16.30;;;14.80;99.90;;;;;;5040321;28;20207;-46
2022/09/11 02:44:54;;;;;;;30.13;17.03;;;14.80;99.90;;;;;;5038866;28;20209;-46
2022/09/11 02:47:33;;;;;;;41.97;17.33;;;14.80;99.90;;;;;;5044172;28;20199;-48
2022/09/11 02:50:08;;;;;;;46.53;17.53;;;14.80;99.90;;;;;;5043643;28;20199;-45
2022/09/11 02:52:46;;;;;;;36.00;17.70;;;14.80;99.90;;;;;;5034869;28;20428;-45
2022/09/11 02:55:21;;;;;;;32.57;17.63;;;14.80;99.90;;;;;;5034423;28;20242;-48
2022/09/11 02:57:55;;;;;;;25.70;15.63;;;14.80;99.90;;;;;;5033019;28;20504;-44
2022/09/11 03:00:24;;;;;;;34.07;17.50;;;14.90;99.90;;;;;;5049597;28;20207;-45
2022/09/11 03:02:52;;;;;;;30.43;17.17;;;14.90;99.90;;;;;;5043032;28;20472;-44
2022/09/11 03:05:20;;;;;;;26.87;16.27;;;14.90;99.90;;;;;;5042003;28;20202;-46
2022/09/11 03:07:47;;;;;;;27.43;16.80;;;14.90;99.90;;;;;;5040442;28;20241;-44
2022/09/11 03:10:15;;;;;;;31.47;17.17;;;14.90;99.90;;;;;;5034663;28;20211;-43
2022/09/11 03:12:42;;;;;;;27.53;16.90;;;14.90;99.90;;;;;;5036342;28;21049;-44
2022/09/11 03:15:11;;;;;;;32.97;16.67;;;14.90;99.90;;;;;;5042117;28;20218;-43
2022/09/11 03:17:39;;;;;;;30.47;19.30;;;14.90;99.90;;;;;;5038998;28;20912;-44
2022/09/11 03:20:07;;;;;;;25.80;15.93;;;14.90;99.90;;;;;;5044645;28;20195;-48
2022/09/11 03:22:33;;;;;;;26.23;16.10;;;14.90;99.90;;;;;;5038947;28;20187;-46
2022/09/11 03:25:03;;;;;;;26.30;15.63;;;14.80;99.90;;;;;;5035919;28;20273;-45
2022/09/11 03:27:30;;;;;;;22.00;14.83;;;14.80;99.90;;;;;;5038660;28;20191;-48
2022/09/11 03:29:59;;;;;;;25.87;15.37;;;14.80;99.90;;;;;;5038197;28;20218;-45
2022/09/11 03:32:26;;;;;;;24.90;16.47;;;14.80;99.90;;;;;;5041204;28;20286;-45
2022/09/11 03:34:54;;;;;;;20.80;14.37;;;14.80;99.90;;;;;;5057247;28;20953;-44
2022/09/11 03:37:20;;;;;;;25.77;15.17;;;14.80;99.90;;;;;;5056491;28;20528;-46
2022/09/11 03:39:47;;;;;;;23.77;15.67;;;14.70;99.90;;;;;;5028455;28;20218;-49
2022/09/11 03:42:15;;;;;;;21.27;14.77;;;14.80;99.90;;;;;;5043497;28;20537;-46
2022/09/11 03:44:44;;;;;;;25.50;15.37;;;14.80;99.90;;;;;;5033685;28;20602;-43
2022/09/11 03:47:12;;;;;;;19.43;14.03;;;14.80;99.90;;;;;;5042511;28;20692;-45
2022/09/11 03:49:39;;;;;;;22.73;14.20;;;14.80;99.90;;;;;;5040200;28;20194;-45
2022/09/11 03:52:07;;;;;;;23.17;15.10;;;14.80;99.90;;;;;;5043823;28;20192;-45
2022/09/11 03:54:34;;;;;;;25.23;15.30;;;14.80;99.90;;;;;;5027840;28;20215;-43
2022/09/11 03:57:01;;;;;;;18.73;13.70;;;14.80;99.90;;;;;;5036327;28;20202;-44
2022/09/11 03:59:29;;;;;;;22.20;13.80;;;14.80;99.90;;;;;;5052305;28;20196;-45
2022/09/11 04:01:56;;;;;;;26.73;14.53;;;14.80;99.90;;;;;;5046083;28;20199;-48
2022/09/11 04:04:23;;;;;;;24.30;14.63;;;14.80;99.90;;;;;;5039160;28;20215;-45
2022/09/11 04:06:50;;;;;;;23.17;13.67;;;14.80;99.90;;;;;;5039167;28;20639;-48
2022/09/11 04:09:19;;;;;;;19.87;13.13;;;14.80;99.90;;;;;;5046838;28;20223;-51
2022/09/11 04:11:49;;;;;;;22.00;14.07;;;14.80;99.90;;;;;;5028519;28;20231;-45
2022/09/11 04:14:24;;;;;;;18.93;12.80;;;14.80;99.90;;;;;;5038737;28;20244;-47
2022/09/11 04:16:53;;;;;;;17.53;12.37;;;14.80;99.90;;;;;;5037238;28;20203;-44
2022/09/11 04:19:22;;;;;;;20.90;12.27;;;14.80;99.90;;;;;;5041067;28;20203;-46
2022/09/11 04:21:50;;;;;;;20.93;11.27;;;14.80;99.90;;;;;;5040007;28;20214;-48
2022/09/11 04:24:16;;;;;;;20.47;12.93;;;14.80;99.90;;;;;;5054483;28;20713;-46
2022/09/11 04:26:47;;;;;;;21.53;13.20;;;14.80;99.90;;;;;;5059183;28;20838;-46
2022/09/11 04:29:21;;;;;;;27.67;14.00;;;14.80;99.90;;;;;;5040433;28;20198;-44
2022/09/11 04:31:48;;;;;;;25.57;13.73;;;14.80;99.90;;;;;;5037631;28;20442;-45
2022/09/11 04:34:17;;;;;;;21.67;12.23;;;14.80;99.90;;;;;;5060243;28;20565;-47
2022/09/11 04:36:44;;;;;;;20.37;11.47;;;14.80;99.90;;;;;;5053413;28;20184;-47
2022/09/11 04:39:15;;;;;;;20.33;12.27;;;14.80;99.90;;;;;;5042729;28;20199;-47
2022/09/11 04:41:43;;;;;;;22.50;12.70;;;14.80;99.90;;;;;;5059020;28;20187;-47
2022/09/11 04:44:11;;;;;;;21.23;13.00;;;14.80;99.90;;;;;;5028721;28;20219;-48
2022/09/11 04:46:44;;;;;;;22.47;12.03;;;14.80;99.90;;;;;;5038367;28;20187;-45
2022/09/11 04:49:11;;;;;;;19.97;12.43;;;14.80;99.90;;;;;;5043336;28;20234;-45
2022/09/11 04:51:39;;;;;;;21.37;12.87;;;14.80;99.90;;;;;;5037621;28;20195;-45
2022/09/11 04:54:13;;;;;;;23.37;12.90;;;14.80;99.90;;;;;;5042735;28;20221;-49
2022/09/11 04:56:41;;;;;;;21.43;12.73;;;14.90;99.90;;;;;;5055624;28;20194;-46
2022/09/11 04:59:14;;;;;;;20.73;12.77;;;14.90;99.90;;;;;;5032714;28;20206;-46
2022/09/11 05:01:46;;;;;;;19.93;12.00;;;14.90;99.90;;;;;;5038900;28;20186;-47
2022/09/11 05:04:17;;;;;;;20.27;11.90;;;14.90;99.90;;;;;;5042205;28;20219;-44
2022/09/11 05:06:47;;;;;;;19.60;12.13;;;14.90;99.90;;;;;;5059074;28;20236;-46
2022/09/11 05:09:16;;;;;;;17.70;11.33;;;14.90;99.90;;;;;;5054221;28;20293;-50
2022/09/11 05:11:46;;;;;;;17.80;11.83;;;15.00;99.90;;;;;;5059036;28;20191;-46
2022/09/11 05:14:15;;;;;;;20.03;11.93;;;15.00;99.90;;;;;;5040008;28;20253;-47
2022/09/11 05:16:45;;;;;;;19.37;11.60;;;15.00;99.90;;;;;;5045544;28;20183;-45
2022/09/11 05:19:13;;;;;;;19.17;11.63;;;15.00;99.90;;;;;;5042939;28;20242;-50
2022/09/11 05:21:40;;;;;;;17.97;11.97;;;15.00;99.90;;;;;;5038768;28;20199;-45
2022/09/11 05:24:08;;;;;;;16.03;11.47;;;15.00;99.90;;;;;;5039620;28;20581;-50
2022/09/11 05:26:36;;;;;;;15.87;11.33;;;15.00;99.90;;;;;;5050651;28;20822;-48
2022/09/11 05:29:07;;;;;;;18.30;11.43;;;15.00;99.90;;;;;;5031014;28;20235;-49
2022/09/11 05:31:41;;;;;;;16.23;11.33;;;15.00;99.90;;;;;;5037170;28;20186;-48
2022/09/11 05:34:09;;;;;;;17.03;12.07;;;15.00;99.90;;;;;;5041432;28;20219;-46
2022/09/11 05:36:36;;;;;;;14.67;10.90;;;15.00;99.90;;;;;;5041060;28;20805;-47
2022/09/11 05:39:04;;;;;;;15.93;11.60;;;15.00;99.90;;;;;;5045830;28;20199;-49
2022/09/11 05:41:33;;;;;;;18.10;12.40;;;15.00;99.90;;;;;;5032445;28;20308;-47
2022/09/11 05:44:00;;;;;;;16.07;11.70;;;15.00;99.90;;;;;;5018666;28;20215;-49
2022/09/11 05:46:27;;;;;;;17.17;11.93;;;15.00;99.90;;;;;;5038962;28;20722;-46
2022/09/11 05:48:59;;;;;;;19.53;14.53;;;15.00;99.90;;;;;;5033773;28;20199;-47
2022/09/11 05:51:27;;;;;;;18.47;14.53;;;15.00;99.90;;;;;;5042167;28;20199;-49
2022/09/11 05:53:55;;;;;;;20.00;14.57;;;15.00;99.90;;;;;;5040346;28;20245;-46
2022/09/11 05:56:24;;;;;;;19.67;14.30;;;15.00;99.90;;;;;;5037791;28;20227;-49
2022/09/11 05:58:56;;;;;;;20.77;14.80;;;15.00;99.90;;;;;;5031941;28;20599;-45
2022/09/11 06:01:29;;;;;;;18.77;14.23;;;15.10;99.90;;;;;;5063994;28;20563;-46
2022/09/11 06:04:11;;;;;;;20.60;14.60;;;15.10;99.90;;;;;;5035049;28;20199;-44
2022/09/11 06:06:38;;;;;;;21.30;15.27;;;15.10;99.90;;;;;;5044572;28;20187;-46
2022/09/11 06:09:05;;;;;;;19.57;15.50;;;15.10;99.90;;;;;;5042100;28;20245;-46
2022/09/11 06:11:33;;;;;;;19.20;15.27;;;15.10;99.90;;;;;;5044942;28;20202;-45
2022/09/11 06:14:00;;;;;;;18.47;14.93;;;15.20;99.90;;;;;;5028404;28;20211;-46
2022/09/11 06:16:30;;;;;;;20.23;14.67;;;15.20;99.90;;;;;;5040397;28;20601;-45
2022/09/11 06:19:04;;;;;;;18.23;14.77;;;15.20;99.90;;;;;;5037912;28;20199;-47
2022/09/11 06:21:32;;;;;;;18.20;14.13;;;15.20;99.90;;;;;;5046573;28;20215;-47
2022/09/11 06:24:07;;;;;;;17.73;14.40;;;15.20;99.90;;;;;;5030485;28;20216;-45
2022/09/11 06:26:35;;;;;;;18.00;14.27;;;15.20;99.90;;;;;;5060170;28;20601;-47
2022/09/11 06:29:02;;;;;;;15.53;13.20;;;15.30;99.90;;;;;;5036766;28;20210;-45
2022/09/11 06:31:31;;;;;;;16.93;12.60;;;15.30;99.90;;;;;;5032255;28;20203;-45
2022/09/11 06:33:58;;;;;;;13.83;10.97;;;15.20;99.90;;;;;;5053256;28;20218;-50
2022/09/11 06:36:26;;;;;;;12.57;11.30;;;15.10;99.90;;;;;;5057164;28;20322;-45
2022/09/11 06:38:58;;;;;;;16.77;11.77;;;15.10;99.90;;;;;;5057957;28;20683;-47
2022/09/11 06:41:27;;;;;;;13.30;11.27;;;15.10;99.90;;;;;;5044949;28;20198;-46
2022/09/11 06:44:03;;;;;;;15.10;11.57;;;15.10;99.90;;;;;;5034347;28;20321;-47
2022/09/11 06:46:31;;;;;;;12.33;11.07;;;15.10;99.90;;;;;;5031426;28;20203;-47
2022/09/11 06:49:00;;;;;;;13.97;11.87;;;15.10;99.90;;;;;;5035974;28;20192;-48
2022/09/11 06:51:28;;;;;;;13.30;11.50;;;15.10;99.90;;;;;;5059708;28;20287;-46
2022/09/11 06:54:01;;;;;;;14.97;12.23;;;15.10;99.90;;;;;;5053365;28;20288;-49
2022/09/11 06:56:32;;;;;;;13.27;11.27;;;15.10;99.90;;;;;;5047939;28;20199;-47
2022/09/11 06:59:00;;;;;;;14.17;11.43;;;15.10;99.90;;;;;;5042346;28;20244;-47
2022/09/11 07:01:28;;;;;;;13.47;11.70;;;15.20;99.90;;;;;;5029653;28;20215;-46
2022/09/11 07:04:01;;;;;;;12.93;11.23;;;15.20;99.90;;;;;;5039082;28;20215;-46
2022/09/11 07:06:30;;;;;;;11.50;10.37;;;15.20;99.90;;;;;;5056206;28;20714;-45
2022/09/11 07:09:01;;;;;;;11.97;10.53;;;15.20;99.90;;;;;;5052955;28;20654;-49
2022/09/11 07:11:42;;;;;;;11.10;10.00;;;15.20;99.90;;;;;;5052572;28;20219;-47
2022/09/11 07:14:10;;;;;;;11.77;10.27;;;15.20;99.90;;;;;;5038494;28;20235;-46
2022/09/11 07:16:39;;;;;;;14.20;10.60;;;15.30;99.90;;;;;;5033598;28;20207;-46
2022/09/11 07:19:10;;;;;;;11.30;10.20;;;15.30;99.90;;;;;;5039183;28;20188;-44
2022/09/11 07:21:38;;;;;;;10.80;9.63;;;15.30;99.90;;;;;;5042437;28;20635;-45
2022/09/11 07:24:08;;;;;;;10.90;9.80;;;15.30;99.90;;;;;;5040262;28;20344;-45
2022/09/11 07:26:40;;;;;;;10.27;9.27;;;15.40;99.90;;;;;;5049697;28;20194;-48
2022/09/11 07:29:11;;;;;;;10.30;9.40;;;15.40;99.90;;;;;;5040373;28;20199;-50
2022/09/11 07:31:39;;;;;;;10.30;9.30;;;15.30;99.90;;;;;;5039822;28;20297;-44
2022/09/11 07:34:05;;;;;;;10.63;9.63;;;15.40;99.90;;;;;;5031921;28;20254;-48
2022/09/11 07:36:34;;;;;;;11.13;10.00;;;15.40;99.90;;;;;;5049591;28;20741;-45
2022/09/11 07:39:04;;;;;;;12.13;10.93;;;15.40;99.90;;;;;;5035847;28;20207;-49
2022/09/11 07:41:38;;;;;;;11.30;10.27;;;15.40;99.90;;;;;;5047745;28;20614;-49
2022/09/11 07:44:13;;;;;;;10.13;9.17;;;15.40;99.90;;;;;;5039229;28;20887;-45
2022/09/11 07:46:41;;;;;;;10.97;9.87;;;15.40;99.90;;;;;;5039070;28;20277;-45
2022/09/11 07:49:10;;;;;;;10.10;9.10;;;15.40;99.90;;;;;;5048534;28;20211;-45
2022/09/11 07:51:38;;;;;;;11.73;9.83;;;15.40;99.90;;;;;;5044289;28;20690;-44
2022/09/11 07:54:06;;;;;;;9.57;8.67;;;15.50;99.90;;;;;;5046509;28;20494;-45
2022/09/11 07:56:36;;;;;;;10.87;9.73;;;15.50;99.90;;;;;;5042234;28;20266;-47
2022/09/11 07:59:08;;;;;;;11.70;9.83;;;15.50;99.90;;;;;;5034289;28;20203;-44
2022/09/11 08:01:41;;;;;;;10.33;9.33;;;15.60;99.90;;;;;;5040487;28;20226;-44
2022/09/11 08:04:10;;;;;;;11.83;9.70;;;15.60;99.90;;;;;;5027727;28;20227;-46
2022/09/11 08:06:38;;;;;;;10.83;9.77;;;15.60;99.90;;;;;;5043666;28;20192;-46
2022/09/11 08:09:13;;;;;;;10.60;9.50;;;15.60;99.90;;;;;;5047292;28;20284;-46
2022/09/11 08:11:47;;;;;;;9.90;8.53;;;15.60;99.90;;;;;;5045569;28;20203;-46
2022/09/11 08:14:17;;;;;;;9.23;8.33;;;15.60;99.90;;;;;;5061549;28;20249;-44
2022/09/11 08:16:47;;;;;;;9.40;8.47;;;15.70;99.90;;;;;;5052014;28;20237;-47
2022/09/11 08:19:17;;;;;;;8.53;7.73;;;15.70;99.90;;;;;;5027217;28;20451;-49
2022/09/11 08:21:46;;;;;;;8.07;7.37;;;15.70;99.90;;;;;;5049872;28;20211;-46
2022/09/11 08:24:13;;;;;;;7.83;7.03;;;15.70;99.90;;;;;;5041549;28;20310;-44
2022/09/11 08:26:40;;;;;;;7.23;6.53;;;15.70;99.90;;;;;;5041819;28;20214;-50
2022/09/11 08:29:08;;;;;;;7.50;6.90;;;15.90;99.90;;;;;;5019818;28;20339;-46
2022/09/11 08:31:37;;;;;;;8.57;7.73;;;16.00;99.90;;;;;;5023764;28;20192;-49
2022/09/11 08:34:03;;;;;;;8.87;8.07;;;16.10;99.90;;;;;;5034569;28;20211;-44
2022/09/11 08:36:30;;;;;;;7.33;6.67;;;16.20;99.90;;;;;;5035633;28;20223;-48
2022/09/11 08:38:59;;;;;;;6.70;6.10;;;16.20;99.90;;;;;;5037540;28;20183;-45
2022/09/11 08:41:36;;;;;;;6.43;5.90;;;16.20;99.90;;;;;;5046356;28;20207;-48
2022/09/11 08:44:13;;;;;;;6.07;5.57;;;16.30;99.90;;;;;;5040276;28;20217;-44
2022/09/11 08:46:44;;;;;;;6.80;6.27;;;16.50;99.90;;;;;;5042499;28;20198;-50
2022/09/11 08:49:19;;;;;;;5.53;5.13;;;16.60;99.90;;;;;;5052561;28;20660;-47
2022/09/11 08:51:48;;;;;;;7.40;6.47;;;16.60;99.90;;;;;;5037451;28;20207;-46
2022/09/11 08:54:26;;;;;;;6.43;5.93;;;16.60;99.90;;;;;;5048665;28;20603;-46
2022/09/11 08:57:05;;;;;;;6.93;6.23;;;16.60;99.90;;;;;;5048308;28;20307;-44
2022/09/11 08:59:44;;;;;;;6.10;5.70;;;16.50;99.90;;;;;;5043713;28;20215;-45
2022/09/11 09:02:31;;;;;;;6.10;5.70;;;16.50;99.90;;;;;;5039941;28;20190;-45
2022/09/11 09:05:15;;;;;;;6.07;5.37;;;16.40;99.90;;;;;;5057470;28;20215;-47
2022/09/11 09:07:58;;;;;;;5.17;4.67;;;16.40;99.90;;;;;;5024965;28;20239;-44
2022/09/11 09:10:39;;;;;;;4.43;4.13;;;16.40;99.90;;;;;;5044952;28;20245;-44
2022/09/11 09:13:21;;;;;;;5.20;3.57;;;16.40;99.90;;;;;;5034205;28;20191;-45
2022/09/11 09:15:55;;;;;;;4.80;4.30;;;16.50;99.90;;;;;;5045813;28;20215;-50
2022/09/11 09:18:31;;;;;;;4.67;4.37;;;16.60;99.90;;;;;;5070420;28;20209;-46
2022/09/11 09:21:02;;;;;;;4.23;3.93;;;16.70;99.90;;;;;;5035032;28;20394;-45
2022/09/11 09:23:35;;;;;;;4.10;3.80;;;16.80;99.90;;;;;;5050065;28;20275;-44
2022/09/11 09:26:02;;;;;;;4.03;3.83;;;16.80;99.90;;;;;;5040237;28;20190;-45
2022/09/11 09:28:36;;;;;;;4.80;3.40;;;16.70;99.90;;;;;;5040490;28;20297;-47
2022/09/11 09:31:07;;;;;;;3.60;3.40;;;16.70;99.90;;;;;;5040236;28;20477;-45
2022/09/11 09:33:42;;;;;;;3.10;2.90;;;16.90;99.90;;;;;;5041921;28;20207;-47
2022/09/11 09:36:15;;;;;;;3.17;2.90;;;17.00;99.90;;;;;;5063855;28;20210;-48
2022/09/11 09:38:45;;;;;;;2.93;2.73;;;17.20;99.90;;;;;;5029216;28;20211;-44
2022/09/11 09:41:40;;;;;;;3.13;2.93;;;17.40;99.90;;;;;;5044470;28;20180;-44
2022/09/11 09:44:14;;;;;;;3.10;2.60;;;17.50;99.90;;;;;;5054546;28;20223;-43
2022/09/11 09:46:44;;;;;;;3.00;2.63;;;17.50;99.90;;;;;;5055498;28;20201;-44
2022/09/11 09:49:17;;;;;;;3.20;3.00;;;17.50;99.90;;;;;;5051240;28;20684;-45
2022/09/11 09:51:44;;;;;;;3.10;2.90;;;17.50;99.90;;;;;;5045851;28;20213;-44
2022/09/11 09:54:16;;;;;;;3.40;3.20;;;17.60;99.90;;;;;;5037857;28;20587;-43
2022/09/11 09:56:52;;;;;;;4.53;3.60;;;17.70;99.90;;;;;;5042956;28;20227;-43
2022/09/11 09:59:23;;;;;;;4.13;3.83;;;17.70;99.90;;;;;;5053916;28;20206;-43
2022/09/11 10:01:51;;;;;;;3.50;3.20;;;17.60;99.90;;;;;;5043186;28;20200;-43
2022/09/11 10:04:22;;;;;;;3.70;3.40;;;17.60;99.90;;;;;;5044766;28;20211;-44
2022/09/11 10:06:51;;;;;;;4.00;3.70;;;17.60;99.90;;;;;;5045762;28;20210;-46
2022/09/11 10:09:24;;;;;;;3.27;3.07;;;17.70;99.90;;;;;;5038122;28;20251;-46
2022/09/11 10:12:00;;;;;;;3.83;2.93;;;17.80;99.90;;;;;;5041499;28;20501;-44
2022/09/11 10:14:31;;;;;;;3.47;2.90;;;17.80;99.90;;;;;;5053790;28;20245;-44
2022/09/11 10:16:59;;;;;;;2.70;2.50;;;17.80;99.90;;;;;;5046515;28;20222;-43
2022/09/11 10:19:40;;;;;;;2.07;1.97;;;17.90;99.90;;;;;;5045454;28;20204;-45
2022/09/11 10:22:22;;;;;;;2.30;2.20;;;18.10;99.90;;;;;;5042282;28;21094;-43
2022/09/11 10:24:59;;;;;;;2.30;2.20;;;18.30;99.90;;;;;;5019416;28;20226;-44
2022/09/11 10:27:27;;;;;;;2.50;2.30;;;18.40;99.90;;;;;;5045312;28;20200;-43
2022/09/11 10:29:54;;;;;;;3.17;2.97;;;18.40;99.90;;;;;;5038721;28;20334;-49
2022/09/11 10:32:23;;;;;;;2.83;2.63;;;18.30;99.90;;;;;;5064732;28;20195;-43
2022/09/11 10:34:52;;;;;;;3.83;2.43;;;18.30;99.90;;;;;;5053033;28;20207;-44
2022/09/11 10:37:25;;;;;;;2.70;2.40;;;18.20;99.90;;;;;;5052172;28;20231;-44
2022/09/11 10:39:52;;;;;;;1.80;1.70;;;18.30;99.90;;;;;;5028158;28;20479;-46
2022/09/11 10:42:22;;;;;;;2.43;1.90;;;18.40;99.90;;;;;;5061763;28;20598;-46
2022/09/11 10:44:50;;;;;;;1.90;1.80;;;18.50;99.90;;;;;;5039998;28;20227;-43
2022/09/11 10:47:23;;;;;;;3.43;1.60;;;18.50;99.90;;;;;;5048739;28;20215;-46
2022/09/11 10:50:10;;;;;;;1.67;1.57;;;18.60;99.90;;;;;;5041193;28;20218;-47
2022/09/11 10:52:48;;;;;;;1.60;1.50;;;18.70;99.90;;;;;;5041845;28;20187;-48
2022/09/11 10:55:16;;;;;;;1.40;1.30;;;18.70;99.90;;;;;;5018667;28;20245;-44
2022/09/11 10:57:45;;;;;;;1.60;1.50;;;18.60;99.90;;;;;;5041911;28;20199;-48
2022/09/11 11:00:16;;;;;;;1.10;1.10;;;18.60;99.90;;;;;;5045049;28;20187;-48
2022/09/11 11:02:45;;;;;;;1.73;1.47;;;18.60;99.90;;;;;;5045065;28;20207;-47
2022/09/11 11:05:22;;;;;;;1.13;1.00;;;18.60;99.90;;;;;;5063938;28;20556;-47
2022/09/11 11:08:24;;;;;;;1.17;1.17;;;18.60;99.90;;;;;;5061068;28;20187;-48
2022/09/11 11:11:02;;;;;;;1.10;1.00;;;18.60;99.90;;;;;;5029002;28;20430;-46
2022/09/11 11:13:50;;;;;;;1.43;1.33;;;18.60;99.90;;;;;;5044600;28;20260;-44
2022/09/11 11:16:26;;;;;;;2.13;1.50;;;18.60;99.90;;;;;;5039653;28;20574;-48
2022/09/11 11:19:16;;;;;;;1.47;1.37;;;18.60;99.90;;;;;;5035892;28;20202;-50
2022/09/11 11:21:56;;;;;;;1.40;1.30;;;18.60;99.90;;;;;;5059880;28;20208;-49
2022/09/11 11:24:38;;;;;;;2.10;1.37;;;18.60;99.90;;;;;;5062084;28;20225;-44
2022/09/11 11:27:26;;;;;;;2.00;1.73;;;18.70;99.90;;;;;;5038896;28;20284;-44
2022/09/11 11:30:09;;;;;;;2.23;1.70;;;18.60;99.90;;;;;;5020699;28;20181;-44
2022/09/11 11:32:52;;;;;;;2.47;2.27;;;18.50;99.90;;;;;;5044785;28;20244;-47
2022/09/11 11:35:24;;;;;;;1.60;1.50;;;18.50;99.90;;;;;;5039210;28;20219;-47
2022/09/11 11:38:02;;;;;;;1.73;1.63;;;18.50;99.90;;;;;;5038903;28;20340;-44
2022/09/11 11:40:35;;;;;;;3.03;1.67;;;18.60;99.90;;;;;;5033688;28;20234;-47
2022/09/11 11:43:06;;;;;;;1.70;1.60;;;18.70;99.90;;;;;;5042915;28;20304;-46
2022/09/11 11:45:39;;;;;;;2.00;1.40;;;18.70;99.90;;;;;;5062434;28;20193;-47
2022/09/11 11:48:12;;;;;;;1.57;1.47;;;18.80;99.90;;;;;;5060820;28;20699;-47
2022/09/11 11:50:43;;;;;;;1.63;1.53;;;18.90;99.90;;;;;;5053157;28;20210;-47
2022/09/11 11:53:20;;;;;;;2.67;1.30;;;19.00;99.90;;;;;;5055475;28;20285;-44
2022/09/11 11:55:57;;;;;;;1.43;1.00;;;19.10;99.90;;;;;;5035895;28;20249;-45
2022/09/11 11:58:38;;;;;;;0.90;0.90;;;19.20;99.90;;;;;;5044321;28;20452;-45
2022/09/11 12:01:14;;;;;;;0.93;0.80;;;19.30;99.90;;;;;;5056704;28;20398;-47
2022/09/11 12:03:49;;;;;;;3.70;0.87;;;19.20;99.90;;;;;;5038491;28;20307;-46
2022/09/11 12:06:15;;;;;;;0.80;0.80;;;19.20;99.90;;;;;;5038944;28;20210;-48
2022/09/11 12:08:44;;;;;;;1.57;0.90;;;19.40;99.90;;;;;;5040139;28;20749;-47
2022/09/11 12:11:14;;;;;;;1.60;0.83;;;19.40;99.90;;;;;;5032671;28;20214;-46
2022/09/11 12:13:44;;;;;;;1.07;0.77;;;19.50;99.90;;;;;;5035773;28;20227;-46
2022/09/11 12:16:19;;;;;;;0.80;0.80;;;19.50;99.90;;;;;;5058105;28;20251;-45
2022/09/11 12:19:03;;;;;;;1.67;0.93;;;19.50;99.90;;;;;;5042803;28;20194;-47
2022/09/11 12:21:37;;;;;;;1.90;1.00;;;19.50;99.90;;;;;;5042459;28;20225;-47
2022/09/11 12:24:18;;;;;;;0.80;0.80;;;19.40;99.90;;;;;;5034375;28;20234;-47
2022/09/11 12:26:45;;;;;;;1.23;0.90;;;19.40;99.90;;;;;;5029628;28;20234;-46
2022/09/11 12:29:53;;;;;;;2.70;0.90;;;19.40;99.90;;;;;;5030394;28;20828;-47
2022/09/11 12:32:50;;;;;;;1.33;0.97;;;19.40;99.90;;;;;;4976114;28;20193;-46
2022/09/11 12:35:25;;;;;;;0.80;0.80;;;19.40;99.90;;;;;;4949302;28;21467;-50
2022/09/11 12:37:57;;;;;;;0.70;0.70;;;19.50;99.90;;;;;;5023870;28;20707;-47
2022/09/11 12:40:32;;;;;;;0.77;0.70;;;19.60;99.90;;;;;;5048626;28;20428;-49
2022/09/11 12:43:25;;;;;;;0.80;0.80;;;19.70;99.90;;;;;;5030824;28;20698;-46
2022/09/11 12:45:52;;;;;;;0.83;0.83;;;19.90;99.90;;;;;;5031460;28;20195;-51
2022/09/11 12:48:24;;;;;;;3.40;1.20;;;19.90;99.90;;;;;;5055799;28;20251;-48
2022/09/11 12:50:54;;;;;;;0.87;0.70;;;19.90;99.90;;;;;;5048430;28;20280;-47
2022/09/11 12:53:26;;;;;;;2.27;0.80;;;20.00;99.90;;;;;;5052651;28;20293;-50
2022/09/11 12:56:03;;;;;;;0.90;0.90;;;20.00;99.90;;;;;;5052646;28;20195;-51
2022/09/11 12:58:35;;;;;;;1.30;1.10;;;20.30;99.90;;;;;;5030599;28;20211;-50
2022/09/11 13:01:07;;;;;;;0.80;0.80;;;20.40;99.90;;;;;;5039265;28;20470;-49